createdAt,value
2018-07-31T00:00:50.671Z,20.20
2018-07-31T00:03:19.231Z,20.10
2018-07-31T00:05:47.746Z,20.00
2018-07-31T00:08:16.247Z,20.00
2018-07-31T00:10:44.954Z,20.00
2018-07-31T00:13:13.497Z,20.10
2018-07-31T00:15:42.013Z,20.10
2018-07-31T00:18:10.528Z,20.10
2018-07-31T00:20:39.188Z,20.10
2018-07-31T00:23:07.873Z,20.20
2018-07-31T00:25:36.366Z,20.10
2018-07-31T00:28:04.923Z,20.10
2018-07-31T00:30:33.466Z,20.10
2018-07-31T00:33:01.971Z,20.10
2018-07-31T00:35:30.824Z,20.10
2018-07-31T00:37:59.356Z,20.20
2018-07-31T00:40:27.958Z,20.20
2018-07-31T00:42:56.464Z,20.20
2018-07-31T00:45:25.009Z,20.30
2018-07-31T00:47:53.586Z,20.50
2018-07-31T00:50:22.121Z,20.70
2018-07-31T00:52:50.811Z,20.70
2018-07-31T00:55:19.413Z,20.80
2018-07-31T00:57:48.056Z,20.80
2018-07-31T01:00:16.746Z,20.80
2018-07-31T01:02:45.274Z,20.90
2018-07-31T01:05:13.913Z,20.90
2018-07-31T01:07:42.451Z,21.10
2018-07-31T01:10:10.965Z,21.20
2018-07-31T01:12:39.451Z,21.20
2018-07-31T01:15:07.964Z,21.20
2018-07-31T01:17:36.457Z,21.30
2018-07-31T01:20:05.402Z,21.30
2018-07-31T01:22:33.922Z,21.30
2018-07-31T01:25:02.480Z,21.20
2018-07-31T01:27:30.990Z,21.20
2018-07-31T01:29:59.488Z,21.20
2018-07-31T01:32:27.975Z,21.10
2018-07-31T01:34:56.470Z,21.10
2018-07-31T01:37:25.007Z,21.10
2018-07-31T01:39:53.685Z,21.10
2018-07-31T01:42:22.182Z,21.00
2018-07-31T01:44:50.761Z,21.10
2018-07-31T01:47:19.259Z,21.10
2018-07-31T01:49:47.918Z,21.10
2018-07-31T01:52:16.427Z,20.90
2018-07-31T01:54:45.497Z,20.90
2018-07-31T01:57:13.988Z,20.80
2018-07-31T01:59:42.521Z,20.80
2018-07-31T02:02:11.012Z,20.80
2018-07-31T02:04:39.561Z,20.70
2018-07-31T02:07:08.110Z,20.90
2018-07-31T02:09:36.599Z,20.90
2018-07-31T02:12:05.177Z,20.90
2018-07-31T02:14:33.692Z,20.80
2018-07-31T02:17:02.218Z,20.80
2018-07-31T02:21:58.914Z,20.90
2018-07-31T02:24:27.412Z,20.80
2018-07-31T02:26:55.930Z,20.90
2018-07-31T02:30:27.529Z,20.80
2018-07-31T02:32:56.033Z,20.70
2018-07-31T02:35:24.582Z,20.70
2018-07-31T02:37:53.196Z,20.80
2018-07-31T02:40:21.723Z,20.80
2018-07-31T02:42:50.237Z,20.90
2018-07-31T02:45:18.902Z,20.90
2018-07-31T02:47:47.427Z,20.90
2018-07-31T02:50:15.930Z,20.90
2018-07-31T02:52:44.472Z,20.90
2018-07-31T02:55:12.978Z,20.90
2018-07-31T02:57:42.058Z,20.90
2018-07-31T03:00:11.587Z,21.00
2018-07-31T03:02:40.147Z,20.90
2018-07-31T03:05:10.685Z,20.90
2018-07-31T03:07:39.198Z,20.90
2018-07-31T03:10:08.984Z,21.00
2018-07-31T03:12:37.484Z,20.90
2018-07-31T03:15:07.303Z,21.00
2018-07-31T03:17:35.837Z,20.90
2018-07-31T03:20:04.773Z,20.90
2018-07-31T03:22:33.650Z,21.00
2018-07-31T03:25:02.216Z,21.00
2018-07-31T03:27:30.722Z,21.10
2018-07-31T03:29:59.320Z,21.00
2018-07-31T03:32:28.507Z,21.00
2018-07-31T03:34:57.012Z,21.20
2018-07-31T03:37:25.681Z,21.20
2018-07-31T03:39:54.613Z,21.20
2018-07-31T03:42:23.963Z,21.30
2018-07-31T03:44:52.460Z,21.30
2018-07-31T03:47:21.122Z,21.30
2018-07-31T03:49:49.628Z,21.40
2018-07-31T03:52:18.237Z,21.40
2018-07-31T03:54:46.717Z,21.50
2018-07-31T03:57:15.249Z,21.50
2018-07-31T03:59:43.936Z,21.50
2018-07-31T04:02:12.523Z,21.40
2018-07-31T04:04:41.036Z,21.50
2018-07-31T04:07:09.597Z,21.60
2018-07-31T04:09:38.116Z,21.70
2018-07-31T04:12:06.686Z,21.80
2018-07-31T04:14:35.269Z,21.80
2018-07-31T04:17:03.860Z,21.90
2018-07-31T04:19:32.375Z,21.80
2018-07-31T04:22:00.897Z,21.80
2018-07-31T04:24:29.425Z,21.70
2018-07-31T04:26:57.914Z,21.60
2018-07-31T04:29:26.463Z,21.60
2018-07-31T04:31:54.978Z,21.60
2018-07-31T04:34:23.477Z,21.60
2018-07-31T04:36:52.044Z,21.70
2018-07-31T04:39:20.552Z,21.70
2018-07-31T04:41:49.035Z,21.70
2018-07-31T04:44:17.573Z,21.70
2018-07-31T04:46:46.082Z,21.60
2018-07-31T04:49:14.599Z,21.70
2018-07-31T04:51:43.190Z,21.80
2018-07-31T04:54:11.740Z,21.70
2018-07-31T04:59:08.532Z,21.80
2018-07-31T05:01:37.112Z,21.80
2018-07-31T05:04:05.609Z,21.80
2018-07-31T05:06:34.196Z,22.00
2018-07-31T05:09:02.866Z,22.00
2018-07-31T05:11:31.413Z,22.10
2018-07-31T05:13:59.933Z,22.20
2018-07-31T05:16:28.520Z,22.40
2018-07-31T05:18:57.032Z,22.40
2018-07-31T05:21:25.576Z,22.40
2018-07-31T05:23:54.070Z,22.40
2018-07-31T05:26:22.644Z,22.50
2018-07-31T05:28:51.230Z,22.50
2018-07-31T05:31:19.763Z,22.60
2018-07-31T05:33:48.296Z,22.60
2018-07-31T05:36:16.846Z,22.60
2018-07-31T05:38:45.469Z,22.60
2018-07-31T05:41:13.938Z,22.60
2018-07-31T05:43:42.493Z,22.80
2018-07-31T05:46:11.161Z,22.80
2018-07-31T05:48:39.706Z,22.90
2018-07-31T05:51:08.265Z,22.90
2018-07-31T05:53:36.767Z,22.90
2018-07-31T05:56:05.488Z,22.90
2018-07-31T05:58:34.057Z,23.10
2018-07-31T06:01:02.551Z,23.20
2018-07-31T06:03:31.158Z,23.30
2018-07-31T06:05:59.792Z,23.30
2018-07-31T06:08:28.467Z,23.90
2018-07-31T06:10:57.012Z,24.40
2018-07-31T06:13:25.565Z,24.70
2018-07-31T06:15:54.108Z,24.70
2018-07-31T06:18:22.712Z,24.60
2018-07-31T06:20:51.231Z,24.50
2018-07-31T06:23:19.883Z,24.70
2018-07-31T06:25:48.403Z,25.00
2018-07-31T06:28:16.976Z,25.50
2018-07-31T06:30:45.476Z,26.00
2018-07-31T06:33:13.956Z,26.40
2018-07-31T06:35:43.347Z,26.20
2018-07-31T06:38:11.855Z,26.60
2018-07-31T06:40:40.358Z,26.60
2018-07-31T06:43:09.039Z,27.20
2018-07-31T06:45:37.562Z,27.40
2018-07-31T06:48:06.078Z,27.70
2018-07-31T06:50:35.358Z,27.40
2018-07-31T06:53:04.018Z,27.50
2018-07-31T06:55:32.567Z,27.30
2018-07-31T06:58:01.196Z,27.70
2018-07-31T07:00:29.745Z,28.80
2018-07-31T07:02:58.245Z,28.90
2018-07-31T07:05:26.792Z,29.60
2018-07-31T07:07:55.314Z,28.40
2018-07-31T07:10:23.900Z,27.80
2018-07-31T07:12:52.464Z,27.10
2018-07-31T07:15:20.973Z,26.60
2018-07-31T07:17:49.496Z,26.80
2018-07-31T07:20:18.005Z,26.80
2018-07-31T07:22:46.522Z,26.80
2018-07-31T07:25:15.036Z,26.40
2018-07-31T07:27:43.562Z,26.40
2018-07-31T07:30:12.091Z,26.20
2018-07-31T07:32:40.625Z,26.40
2018-07-31T07:37:37.517Z,27.40
2018-07-31T07:40:06.120Z,26.90
2018-07-31T07:42:34.702Z,26.60
2018-07-31T07:45:03.280Z,26.70
2018-07-31T07:47:31.809Z,27.00
2018-07-31T07:50:00.350Z,27.00
2018-07-31T07:52:28.875Z,27.50
2018-07-31T07:54:57.381Z,27.50
2018-07-31T07:57:25.966Z,27.20
2018-07-31T07:59:54.518Z,27.30
2018-07-31T08:02:23.068Z,28.20
2018-07-31T08:04:51.754Z,27.90
2018-07-31T08:07:20.298Z,26.90
2018-07-31T08:09:48.809Z,26.30
2018-07-31T08:12:17.352Z,26.40
2018-07-31T08:17:14.100Z,26.20
2018-07-31T08:19:42.632Z,26.20
2018-07-31T08:22:11.228Z,26.60
2018-07-31T08:24:39.774Z,27.70
2018-07-31T08:27:08.286Z,28.50
2018-07-31T08:29:36.817Z,28.10
2018-07-31T08:32:05.355Z,27.30
2018-07-31T08:34:33.988Z,29.00
2018-07-31T08:37:02.500Z,28.80
2018-07-31T08:42:00.254Z,30.10
2018-07-31T08:44:28.768Z,30.10
2018-07-31T08:46:57.288Z,28.40
2018-07-31T08:49:25.825Z,27.90
2018-07-31T08:51:54.392Z,29.40
2018-07-31T08:54:23.118Z,28.50
2018-07-31T08:56:51.703Z,27.90
2018-07-31T08:59:20.348Z,27.80
2018-07-31T09:06:45.825Z,28.80
2018-07-31T09:09:14.331Z,28.60
2018-07-31T09:11:42.866Z,28.20
2018-07-31T09:14:11.964Z,29.60
2018-07-31T09:16:40.498Z,29.00
2018-07-31T09:19:09.060Z,27.70
2018-07-31T09:21:37.661Z,29.30
2018-07-31T09:24:06.182Z,30.20
2018-07-31T09:26:34.708Z,28.40
2018-07-31T09:29:03.245Z,29.10
2018-07-31T09:31:31.796Z,28.10
2018-07-31T09:34:00.317Z,27.00
2018-07-31T09:36:28.856Z,28.30
2018-07-31T09:38:57.412Z,28.50
2018-07-31T09:41:25.956Z,28.90
2018-07-31T09:43:54.474Z,28.70
2018-07-31T09:46:23.385Z,29.80
2018-07-31T09:48:51.944Z,29.20
2018-07-31T09:51:20.459Z,28.90
2018-07-31T09:53:48.977Z,29.30
2018-07-31T09:56:17.619Z,29.70
2018-07-31T09:58:46.135Z,29.60
2018-07-31T10:01:18.640Z,29.90
2018-07-31T10:03:47.761Z,31.20
2018-07-31T10:06:16.669Z,31.20
2018-07-31T10:08:45.280Z,32.40
2018-07-31T10:11:13.788Z,32.70
2018-07-31T10:13:42.319Z,31.00
2018-07-31T10:16:11.073Z,27.90
2018-07-31T10:18:39.600Z,29.00
2018-07-31T10:21:08.375Z,29.90
2018-07-31T10:23:36.932Z,32.00
2018-07-31T10:28:33.908Z,32.30
2018-07-31T10:31:02.485Z,31.10
2018-07-31T10:33:31.009Z,31.90
2018-07-31T10:35:59.520Z,31.60
2018-07-31T10:38:28.056Z,30.70
2018-07-31T10:40:56.604Z,31.60
2018-07-31T10:43:25.140Z,31.60
2018-07-31T10:45:53.739Z,31.20
2018-07-31T10:48:22.419Z,30.80
2018-07-31T10:50:50.951Z,29.50
2018-07-31T10:53:19.493Z,31.50
2018-07-31T10:55:48.034Z,32.10
2018-07-31T10:58:16.631Z,31.80
2018-07-31T11:00:45.215Z,32.40
2018-07-31T11:03:14.046Z,31.30
2018-07-31T11:05:42.552Z,31.60
2018-07-31T11:08:11.126Z,31.70
2018-07-31T11:10:39.662Z,33.20
2018-07-31T11:13:08.229Z,31.90
2018-07-31T11:15:36.809Z,32.00
2018-07-31T11:18:05.373Z,30.60
2018-07-31T11:20:33.899Z,33.00
2018-07-31T11:25:30.776Z,32.20
2018-07-31T11:27:59.340Z,33.40
2018-07-31T11:30:27.880Z,34.30
2018-07-31T11:32:56.574Z,34.60
2018-07-31T11:35:25.181Z,31.90
2018-07-31T11:37:53.713Z,31.10
2018-07-31T11:40:22.226Z,29.80
2018-07-31T11:42:51.433Z,32.30
2018-07-31T11:45:20.036Z,31.60
2018-07-31T11:47:48.620Z,33.00
2018-07-31T11:50:17.234Z,33.50
2018-07-31T11:52:45.729Z,32.00
2018-07-31T11:55:14.358Z,32.50
2018-07-31T11:57:42.892Z,32.40
2018-07-31T12:00:12.933Z,33.10
2018-07-31T12:02:41.735Z,31.80
2018-07-31T12:05:10.286Z,33.10
2018-07-31T12:07:38.969Z,31.70
2018-07-31T12:10:07.681Z,31.50
2018-07-31T12:12:36.189Z,33.70
2018-07-31T12:15:05.486Z,32.80
2018-07-31T12:17:34.027Z,33.80
2018-07-31T12:20:02.667Z,35.30
2018-07-31T12:22:31.206Z,33.30
2018-07-31T12:24:59.711Z,30.70
2018-07-31T12:27:28.348Z,30.90
2018-07-31T12:29:56.928Z,29.10
2018-07-31T12:32:25.537Z,32.20
2018-07-31T12:34:54.132Z,33.00
2018-07-31T12:37:22.682Z,33.00
2018-07-31T12:39:51.304Z,33.40
2018-07-31T12:42:19.855Z,32.90
2018-07-31T12:47:16.646Z,33.00
2018-07-31T12:49:45.161Z,33.70
2018-07-31T12:52:13.710Z,33.80
2018-07-31T12:54:42.226Z,33.00
2018-07-31T12:57:10.752Z,34.30
2018-07-31T12:59:39.301Z,35.10
2018-07-31T13:02:08.112Z,34.90
2018-07-31T13:04:36.624Z,31.50
2018-07-31T13:07:05.146Z,32.30
2018-07-31T13:09:33.681Z,33.30
2018-07-31T13:12:02.386Z,35.80
2018-07-31T13:14:30.932Z,35.40
2018-07-31T13:16:59.469Z,33.60
2018-07-31T13:19:27.999Z,34.40
2018-07-31T13:21:56.643Z,32.80
2018-07-31T13:24:25.424Z,32.30
2018-07-31T13:26:54.075Z,34.80
2018-07-31T13:29:22.639Z,32.80
2018-07-31T13:31:51.164Z,31.50
2018-07-31T13:34:19.687Z,32.60
2018-07-31T13:36:48.230Z,35.40
2018-07-31T13:39:16.821Z,36.30
2018-07-31T13:41:45.338Z,35.10
2018-07-31T13:44:14.062Z,34.60
2018-07-31T13:46:42.399Z,35.60
2018-07-31T13:49:11.249Z,36.30
2018-07-31T13:51:39.801Z,36.40
2018-07-31T13:54:08.286Z,35.20
2018-07-31T13:59:05.034Z,33.70
2018-07-31T14:01:33.561Z,36.10
2018-07-31T14:04:02.150Z,34.70
2018-07-31T14:06:30.740Z,33.80
2018-07-31T14:08:59.299Z,34.00
2018-07-31T14:11:27.825Z,34.30
2018-07-31T14:13:56.783Z,32.80
2018-07-31T14:16:25.296Z,33.00
2018-07-31T14:18:53.915Z,33.20
2018-07-31T14:21:22.484Z,32.00
2018-07-31T14:23:51.020Z,33.70
2018-07-31T14:26:19.545Z,33.80
2018-07-31T14:28:48.129Z,34.10
2018-07-31T14:31:16.598Z,32.50
2018-07-31T14:33:45.101Z,34.60
2018-07-31T14:36:13.646Z,31.20
2018-07-31T14:38:42.161Z,34.30
2018-07-31T14:41:10.728Z,32.10
2018-07-31T14:43:39.295Z,35.40
2018-07-31T14:46:08.075Z,31.30
2018-07-31T14:48:36.658Z,30.50
2018-07-31T14:51:05.209Z,32.80
2018-07-31T14:53:33.742Z,34.70
2018-07-31T14:56:02.314Z,34.50
2018-07-31T14:58:30.862Z,33.20
2018-07-31T15:00:59.352Z,35.10
2018-07-31T15:03:27.868Z,33.30
2018-07-31T15:05:56.799Z,33.80
2018-07-31T15:08:25.332Z,34.30
2018-07-31T15:10:53.917Z,33.40
2018-07-31T15:13:22.451Z,33.20
2018-07-31T15:18:19.405Z,32.60
2018-07-31T15:20:47.988Z,33.50
2018-07-31T15:23:16.509Z,33.60
2018-07-31T15:25:45.020Z,32.90
2018-07-31T15:28:13.558Z,34.40
2018-07-31T15:30:42.080Z,33.10
2018-07-31T15:33:10.597Z,32.80
2018-07-31T15:35:39.327Z,35.00
2018-07-31T15:38:07.848Z,34.20
2018-07-31T15:40:36.424Z,33.40
2018-07-31T15:43:04.930Z,33.30
2018-07-31T15:45:33.465Z,33.00
2018-07-31T15:48:02.031Z,33.40
2018-07-31T15:50:30.554Z,32.50
2018-07-31T15:52:59.565Z,33.90
2018-07-31T15:55:28.273Z,32.50
2018-07-31T15:57:56.833Z,32.30
2018-07-31T16:00:25.422Z,32.40
2018-07-31T16:02:53.867Z,32.80
2018-07-31T16:05:22.496Z,33.10
2018-07-31T16:07:51.204Z,32.30
2018-07-31T16:10:19.837Z,31.00
2018-07-31T16:12:48.383Z,30.20
2018-07-31T16:17:45.200Z,29.80
2018-07-31T16:20:13.737Z,30.10
2018-07-31T16:22:42.287Z,29.30
2018-07-31T16:25:10.826Z,29.70
2018-07-31T16:27:39.542Z,29.80
2018-07-31T16:30:08.214Z,29.80
2018-07-31T16:32:36.725Z,29.30
2018-07-31T16:35:05.329Z,29.20
2018-07-31T16:37:33.851Z,29.10
2018-07-31T16:40:02.396Z,28.90
2018-07-31T16:42:30.953Z,28.70
2018-07-31T16:44:59.480Z,28.70
2018-07-31T16:47:28.024Z,28.60
2018-07-31T16:49:56.708Z,28.40
2018-07-31T16:52:25.237Z,28.40
2018-07-31T16:54:53.992Z,28.00
2018-07-31T16:57:22.701Z,28.00
2018-07-31T16:59:51.283Z,28.00
2018-07-31T17:02:19.826Z,28.10
2018-07-31T17:04:48.385Z,28.20
2018-07-31T17:07:17.323Z,28.10
2018-07-31T17:12:14.121Z,27.80
2018-07-31T17:14:42.729Z,27.80
2018-07-31T17:17:11.328Z,27.80
2018-07-31T17:19:39.990Z,27.90
2018-07-31T17:22:08.584Z,27.90
2018-07-31T17:24:37.249Z,27.70
2018-07-31T17:27:06.079Z,27.80
2018-07-31T17:29:34.593Z,27.60
2018-07-31T17:32:03.218Z,27.50
2018-07-31T17:34:31.769Z,27.50
2018-07-31T17:37:00.267Z,27.40
2018-07-31T17:39:28.781Z,27.40
2018-07-31T17:41:57.335Z,27.40
2018-07-31T17:44:25.965Z,27.40
2018-07-31T17:46:54.487Z,27.30
2018-07-31T17:51:51.366Z,27.20
2018-07-31T17:54:19.914Z,27.20
2018-07-31T17:56:48.444Z,27.30
2018-07-31T17:59:17.000Z,27.30
2018-07-31T18:01:45.535Z,27.40
2018-07-31T18:04:14.071Z,27.30
2018-07-31T18:06:42.708Z,27.20
2018-07-31T18:09:11.881Z,27.20
2018-07-31T18:11:41.146Z,27.20
2018-07-31T18:16:38.238Z,27.10
2018-07-31T18:19:07.365Z,27.10
2018-07-31T18:21:35.898Z,27.00
2018-07-31T18:24:05.027Z,27.00
2018-07-31T18:26:33.608Z,26.90
2018-07-31T18:29:02.176Z,26.90
2018-07-31T18:31:30.733Z,26.90
2018-07-31T18:33:59.239Z,26.70
2018-07-31T18:36:28.046Z,26.60
2018-07-31T18:38:56.617Z,26.50
2018-07-31T18:41:25.270Z,26.40
2018-07-31T18:43:53.739Z,26.50
2018-07-31T18:46:22.257Z,26.40
2018-07-31T18:48:50.792Z,26.50
2018-07-31T18:51:19.449Z,26.30
2018-07-31T18:53:47.951Z,26.00
2018-07-31T18:56:16.478Z,25.80
2018-07-31T18:58:45.011Z,25.70
2018-07-31T19:01:13.766Z,25.60
2018-07-31T19:03:42.292Z,25.50
2018-07-31T19:06:10.785Z,25.30
2018-07-31T19:08:39.278Z,25.30
2018-07-31T19:11:07.845Z,25.20
2018-07-31T19:13:36.707Z,25.10
2018-07-31T19:16:06.062Z,24.90
2018-07-31T19:23:31.118Z,24.50
2018-07-31T19:25:59.645Z,24.30
2018-07-31T19:28:28.301Z,24.60
2018-07-31T19:30:56.805Z,24.20
2018-07-31T19:33:25.374Z,24.30
2018-07-31T19:35:53.896Z,24.10
2018-07-31T19:38:22.422Z,24.00
2018-07-31T19:40:50.973Z,23.90
2018-07-31T19:43:19.495Z,23.80
2018-07-31T19:45:47.999Z,24.20
2018-07-31T19:48:16.546Z,23.90
2018-07-31T19:50:45.163Z,24.00
2018-07-31T19:53:13.728Z,24.10
2018-07-31T19:55:42.237Z,23.80
2018-07-31T19:58:10.760Z,23.70
2018-07-31T20:00:39.312Z,23.40
2018-07-31T20:03:07.838Z,23.50
2018-07-31T20:05:36.338Z,23.30
2018-07-31T20:08:04.895Z,23.10
2018-07-31T20:10:33.541Z,23.20
2018-07-31T20:13:02.223Z,23.10
2018-07-31T20:15:30.813Z,23.00
2018-07-31T20:17:59.497Z,22.90
2018-07-31T20:20:28.028Z,22.70
2018-07-31T20:22:56.519Z,22.70
2018-07-31T20:25:25.102Z,22.80
2018-07-31T20:27:53.620Z,22.70
2018-07-31T20:30:22.171Z,22.70
2018-07-31T20:32:50.718Z,22.50
2018-07-31T20:35:19.236Z,22.50
2018-07-31T20:40:16.021Z,22.30
2018-07-31T20:42:44.576Z,22.30
2018-07-31T20:45:13.157Z,22.20
2018-07-31T20:47:41.680Z,21.90
2018-07-31T20:50:10.272Z,22.10
2018-07-31T20:52:38.829Z,22.00
2018-07-31T20:55:07.395Z,22.10
2018-07-31T20:57:35.935Z,22.10
2018-07-31T21:00:05.351Z,22.10
2018-07-31T21:02:34.028Z,21.70
2018-07-31T21:05:02.694Z,21.60
2018-07-31T21:07:31.227Z,21.60
2018-07-31T21:09:59.754Z,21.50
2018-07-31T21:12:28.448Z,21.60
2018-07-31T21:14:57.031Z,21.40
2018-07-31T21:17:25.540Z,21.50
2018-07-31T21:19:54.045Z,21.20
2018-07-31T21:22:22.674Z,21.20
2018-07-31T21:24:51.229Z,21.30
2018-07-31T21:27:20.337Z,21.00
2018-07-31T21:29:48.836Z,21.10
2018-07-31T21:32:17.362Z,21.00
2018-07-31T21:34:45.915Z,21.10
2018-07-31T21:37:14.434Z,21.00
2018-07-31T21:39:42.958Z,21.00
2018-07-31T21:42:11.481Z,20.90
2018-07-31T21:44:39.991Z,20.80
2018-07-31T21:47:08.562Z,20.70
2018-07-31T21:49:37.096Z,20.80
2018-07-31T21:52:05.641Z,20.60
2018-07-31T21:54:34.176Z,20.60
2018-07-31T21:57:02.723Z,20.60
2018-07-31T21:59:31.574Z,20.40
2018-07-31T22:02:00.178Z,20.10
2018-07-31T22:04:28.810Z,20.30
2018-07-31T22:06:57.332Z,20.30
2018-07-31T22:09:31.739Z,20.40
2018-07-31T22:12:00.824Z,20.20
2018-07-31T22:14:29.361Z,20.40
2018-07-31T22:16:57.885Z,20.00
2018-07-31T22:19:26.483Z,20.10
2018-07-31T22:21:55.035Z,20.30
2018-07-31T22:24:23.595Z,19.90
2018-07-31T22:26:52.111Z,19.80
2018-07-31T22:29:20.622Z,19.60
2018-07-31T22:31:49.291Z,19.50
2018-07-31T22:34:17.822Z,19.50
2018-07-31T22:36:46.388Z,19.90
2018-07-31T22:39:14.956Z,19.80
2018-07-31T22:41:43.481Z,19.50
2018-07-31T22:44:11.998Z,19.20
2018-07-31T22:46:40.532Z,19.10
2018-07-31T22:49:09.062Z,19.00
2018-07-31T22:51:37.571Z,18.70
2018-07-31T22:54:06.136Z,18.80
2018-07-31T22:56:34.680Z,19.00
2018-07-31T22:59:03.250Z,18.60
2018-07-31T23:04:00.372Z,18.40
2018-07-31T23:06:28.908Z,18.30
2018-07-31T23:08:57.513Z,18.20
2018-07-31T23:11:26.095Z,18.30
2018-07-31T23:13:54.611Z,18.20
2018-07-31T23:16:23.153Z,18.10
2018-07-31T23:18:51.692Z,18.00
2018-07-31T23:21:20.293Z,18.00
2018-07-31T23:23:48.822Z,17.80
2018-07-31T23:26:17.432Z,17.80
2018-07-31T23:28:45.921Z,17.80
2018-07-31T23:31:14.474Z,17.70
2018-07-31T23:33:42.992Z,17.70
2018-07-31T23:36:11.555Z,17.60
2018-07-31T23:38:40.104Z,17.40
2018-07-31T23:41:08.654Z,17.20
2018-07-31T23:43:37.196Z,17.40
2018-07-31T23:46:05.784Z,17.10
2018-07-31T23:48:34.403Z,17.00
2018-07-31T23:51:02.911Z,17.00
2018-07-31T23:53:31.441Z,17.00
2018-07-31T23:55:59.956Z,17.10
2018-07-31T23:58:28.485Z,17.10
